Port Costa, California
Current Conditions -  °F | °C
As of 8:53 PM on Tuesday 21 Oct 2014 (Local Time) from KCCR Reporting Station
Clear Clear  
Wind Chill: 61°   Ceiling: Unl
Heat Index: 61°   Visibility: 10mi
Dew Point: 49°   Wind: 5mph
Humidity: 64%   Direction: 240°WSW
Pressure: 30.03"   Gusts: NA
Location:  38.05°N, 122.19°W
Report Text: KCCR 220353Z 24004KT 10SM CLR 16/09 A3003 RMK AO2 SLP153 T01610094
Loading
Personal Weather Stations






























Interactive Weather Map
Tropical Storm Tracking
New forecast layout! Learn more

10-Day Weather Forecast

Advertisements
Track Severe Weather on mobile